sensor_id;sensor_type;location;lat;lon;timestamp;P1;durP1;ratioP1;P2;durP2;ratioP2
60243;SDS011;46106;51.468;5.814;2023-07-16T00:02:42;5.32;;;2.85;;
60243;SDS011;46106;51.468;5.814;2023-07-16T00:05:27;6.97;;;2.67;;
60243;SDS011;46106;51.468;5.814;2023-07-16T00:08:13;8.18;;;3.30;;
60243;SDS011;46106;51.468;5.814;2023-07-16T00:10:59;8.25;;;4.18;;
60243;SDS011;46106;51.468;5.814;2023-07-16T00:13:44;8.60;;;3.15;;
60243;SDS011;46106;51.468;5.814;2023-07-16T00:16:33;9.43;;;3.63;;
60243;SDS011;46106;51.468;5.814;2023-07-16T00:19:18;7.22;;;2.83;;
60243;SDS011;46106;51.468;5.814;2023-07-16T00:22:04;9.40;;;2.92;;
60243;SDS011;46106;51.468;5.814;2023-07-16T00:24:50;12.27;;;3.20;;
60243;SDS011;46106;51.468;5.814;2023-07-16T00:27:36;12.80;;;3.30;;
60243;SDS011;46106;51.468;5.814;2023-07-16T00:30:22;7.50;;;2.80;;
60243;SDS011;46106;51.468;5.814;2023-07-16T00:33:07;10.05;;;3.42;;
60243;SDS011;46106;51.468;5.814;2023-07-16T00:35:53;8.73;;;3.47;;
60243;SDS011;46106;51.468;5.814;2023-07-16T00:38:39;7.30;;;3.17;;
60243;SDS011;46106;51.468;5.814;2023-07-16T00:41:25;4.68;;;3.20;;
60243;SDS011;46106;51.468;5.814;2023-07-16T00:44:11;8.20;;;3.20;;
60243;SDS011;46106;51.468;5.814;2023-07-16T00:46:57;7.45;;;3.22;;
60243;SDS011;46106;51.468;5.814;2023-07-16T00:49:43;7.05;;;3.40;;
60243;SDS011;46106;51.468;5.814;2023-07-16T00:52:29;6.50;;;3.33;;
60243;SDS011;46106;51.468;5.814;2023-07-16T00:55:14;8.35;;;3.35;;
60243;SDS011;46106;51.468;5.814;2023-07-16T00:58:02;10.35;;;3.70;;
60243;SDS011;46106;51.468;5.814;2023-07-16T01:00:50;6.55;;;3.67;;
60243;SDS011;46106;51.468;5.814;2023-07-16T01:03:36;10.13;;;3.97;;
60243;SDS011;46106;51.468;5.814;2023-07-16T01:06:25;10.15;;;3.53;;
60243;SDS011;46106;51.468;5.814;2023-07-16T01:09:21;15.55;;;3.75;;
60243;SDS011;46106;51.468;5.814;2023-07-16T01:12:07;10.48;;;4.43;;
60243;SDS011;46106;51.468;5.814;2023-07-16T01:14:54;12.23;;;3.97;;
60243;SDS011;46106;51.468;5.814;2023-07-16T01:17:41;12.15;;;3.63;;
60243;SDS011;46106;51.468;5.814;2023-07-16T01:20:27;8.73;;;3.78;;
60243;SDS011;46106;51.468;5.814;2023-07-16T01:26:34;11.82;;;3.97;;
60243;SDS011;46106;51.468;5.814;2023-07-16T01:29:28;4.55;;;3.00;;
60243;SDS011;46106;51.468;5.814;2023-07-16T01:32:43;7.00;;;4.07;;
60243;SDS011;46106;51.468;5.814;2023-07-16T01:35:31;6.80;;;3.47;;
60243;SDS011;46106;51.468;5.814;2023-07-16T01:38:18;10.07;;;3.50;;
60243;SDS011;46106;51.468;5.814;2023-07-16T01:41:06;8.18;;;3.17;;
60243;SDS011;46106;51.468;5.814;2023-07-16T01:43:52;10.50;;;3.90;;
60243;SDS011;46106;51.468;5.814;2023-07-16T01:46:37;5.97;;;3.88;;
60243;SDS011;46106;51.468;5.814;2023-07-16T01:49:23;9.35;;;3.80;;
60243;SDS011;46106;51.468;5.814;2023-07-16T01:52:09;12.07;;;3.95;;
60243;SDS011;46106;51.468;5.814;2023-07-16T01:54:55;8.13;;;3.85;;
60243;SDS011;46106;51.468;5.814;2023-07-16T01:57:40;10.85;;;4.47;;
60243;SDS011;46106;51.468;5.814;2023-07-16T02:00:26;6.30;;;3.72;;
60243;SDS011;46106;51.468;5.814;2023-07-16T02:03:12;10.57;;;4.47;;
60243;SDS011;46106;51.468;5.814;2023-07-16T02:05:57;13.20;;;4.20;;
60243;SDS011;46106;51.468;5.814;2023-07-16T02:08:43;9.75;;;5.22;;
60243;SDS011;46106;51.468;5.814;2023-07-16T02:11:29;8.98;;;4.53;;
60243;SDS011;46106;51.468;5.814;2023-07-16T02:14:15;8.38;;;4.15;;
60243;SDS011;46106;51.468;5.814;2023-07-16T02:17:01;11.23;;;4.50;;
60243;SDS011;46106;51.468;5.814;2023-07-16T02:19:47;12.63;;;4.65;;
60243;SDS011;46106;51.468;5.814;2023-07-16T02:22:33;11.90;;;5.13;;
60243;SDS011;46106;51.468;5.814;2023-07-16T02:25:20;11.27;;;4.72;;
60243;SDS011;46106;51.468;5.814;2023-07-16T02:28:06;7.57;;;4.65;;
60243;SDS011;46106;51.468;5.814;2023-07-16T02:30:51;13.90;;;4.82;;
60243;SDS011;46106;51.468;5.814;2023-07-16T02:33:37;8.02;;;4.50;;
60243;SDS011;46106;51.468;5.814;2023-07-16T02:36:23;7.47;;;4.78;;
60243;SDS011;46106;51.468;5.814;2023-07-16T02:39:08;10.75;;;3.95;;
60243;SDS011;46106;51.468;5.814;2023-07-16T02:41:54;11.43;;;4.18;;
60243;SDS011;46106;51.468;5.814;2023-07-16T02:44:40;11.15;;;4.50;;
60243;SDS011;46106;51.468;5.814;2023-07-16T02:47:29;11.05;;;3.80;;
60243;SDS011;46106;51.468;5.814;2023-07-16T02:50:15;13.57;;;3.90;;
60243;SDS011;46106;51.468;5.814;2023-07-16T02:53:01;16.58;;;3.65;;
60243;SDS011;46106;51.468;5.814;2023-07-16T02:55:48;8.90;;;4.10;;
60243;SDS011;46106;51.468;5.814;2023-07-16T02:58:34;5.63;;;2.58;;
60243;SDS011;46106;51.468;5.814;2023-07-16T03:01:20;11.55;;;3.05;;
60243;SDS011;46106;51.468;5.814;2023-07-16T03:04:06;13.85;;;2.85;;
60243;SDS011;46106;51.468;5.814;2023-07-16T03:06:51;7.75;;;2.60;;
60243;SDS011;46106;51.468;5.814;2023-07-16T03:09:37;6.63;;;2.72;;
60243;SDS011;46106;51.468;5.814;2023-07-16T03:12:23;7.57;;;2.45;;
60243;SDS011;46106;51.468;5.814;2023-07-16T03:15:09;8.93;;;2.97;;
60243;SDS011;46106;51.468;5.814;2023-07-16T03:17:55;11.85;;;2.83;;
60243;SDS011;46106;51.468;5.814;2023-07-16T03:20:40;13.10;;;2.97;;
60243;SDS011;46106;51.468;5.814;2023-07-16T03:23:26;7.85;;;2.78;;
60243;SDS011;46106;51.468;5.814;2023-07-16T03:26:12;11.13;;;2.53;;
60243;SDS011;46106;51.468;5.814;2023-07-16T03:28:57;12.98;;;3.05;;
60243;SDS011;46106;51.468;5.814;2023-07-16T03:31:43;10.98;;;2.75;;
60243;SDS011;46106;51.468;5.814;2023-07-16T03:34:29;9.35;;;2.85;;
60243;SDS011;46106;51.468;5.814;2023-07-16T03:37:15;8.98;;;3.10;;
60243;SDS011;46106;51.468;5.814;2023-07-16T03:40:12;11.00;;;3.08;;
60243;SDS011;46106;51.468;5.814;2023-07-16T03:43:02;9.35;;;2.67;;
60243;SDS011;46106;51.468;5.814;2023-07-16T03:45:48;9.68;;;2.67;;
60243;SDS011;46106;51.468;5.814;2023-07-16T03:48:35;7.05;;;2.58;;
60243;SDS011;46106;51.468;5.814;2023-07-16T03:51:21;14.38;;;2.95;;
60243;SDS011;46106;51.468;5.814;2023-07-16T03:54:07;12.73;;;3.45;;
60243;SDS011;46106;51.468;5.814;2023-07-16T03:56:52;8.15;;;3.97;;
60243;SDS011;46106;51.468;5.814;2023-07-16T03:59:38;8.98;;;3.22;;
60243;SDS011;46106;51.468;5.814;2023-07-16T04:02:24;7.63;;;2.47;;
60243;SDS011;46106;51.468;5.814;2023-07-16T04:05:10;13.98;;;3.35;;
60243;SDS011;46106;51.468;5.814;2023-07-16T04:07:55;11.52;;;2.92;;
60243;SDS011;46106;51.468;5.814;2023-07-16T04:10:41;13.95;;;3.80;;
60243;SDS011;46106;51.468;5.814;2023-07-16T04:13:27;8.55;;;2.92;;
60243;SDS011;46106;51.468;5.814;2023-07-16T04:16:13;8.88;;;3.45;;
60243;SDS011;46106;51.468;5.814;2023-07-16T04:18:58;9.65;;;3.17;;
60243;SDS011;46106;51.468;5.814;2023-07-16T04:21:44;11.38;;;3.42;;
60243;SDS011;46106;51.468;5.814;2023-07-16T04:24:30;14.93;;;4.80;;
60243;SDS011;46106;51.468;5.814;2023-07-16T04:27:15;14.18;;;3.92;;
60243;SDS011;46106;51.468;5.814;2023-07-16T04:30:01;18.25;;;3.90;;
60243;SDS011;46106;51.468;5.814;2023-07-16T04:32:47;14.05;;;3.72;;
60243;SDS011;46106;51.468;5.814;2023-07-16T04:35:33;13.20;;;4.05;;
60243;SDS011;46106;51.468;5.814;2023-07-16T04:38:19;13.85;;;3.88;;
60243;SDS011;46106;51.468;5.814;2023-07-16T04:41:05;9.20;;;3.45;;
60243;SDS011;46106;51.468;5.814;2023-07-16T04:43:50;16.45;;;4.22;;
60243;SDS011;46106;51.468;5.814;2023-07-16T04:46:36;14.30;;;3.67;;
60243;SDS011;46106;51.468;5.814;2023-07-16T04:49:22;12.60;;;3.50;;
60243;SDS011;46106;51.468;5.814;2023-07-16T04:52:08;20.00;;;4.13;;
60243;SDS011;46106;51.468;5.814;2023-07-16T04:54:53;22.52;;;4.07;;
60243;SDS011;46106;51.468;5.814;2023-07-16T04:57:39;13.57;;;3.60;;
60243;SDS011;46106;51.468;5.814;2023-07-16T05:00:25;25.73;;;4.40;;
60243;SDS011;46106;51.468;5.814;2023-07-16T05:03:10;11.50;;;4.20;;
60243;SDS011;46106;51.468;5.814;2023-07-16T05:05:56;13.50;;;4.15;;
60243;SDS011;46106;51.468;5.814;2023-07-16T05:08:42;17.00;;;4.25;;
60243;SDS011;46106;51.468;5.814;2023-07-16T05:11:28;20.05;;;4.82;;
60243;SDS011;46106;51.468;5.814;2023-07-16T05:14:13;12.52;;;4.20;;
60243;SDS011;46106;51.468;5.814;2023-07-16T05:16:59;10.30;;;4.53;;
60243;SDS011;46106;51.468;5.814;2023-07-16T05:19:45;12.05;;;3.78;;
60243;SDS011;46106;51.468;5.814;2023-07-16T05:22:30;11.75;;;4.03;;
60243;SDS011;46106;51.468;5.814;2023-07-16T05:25:16;9.00;;;3.53;;
60243;SDS011;46106;51.468;5.814;2023-07-16T05:28:02;8.98;;;4.05;;
60243;SDS011;46106;51.468;5.814;2023-07-16T05:30:47;14.55;;;4.28;;
60243;SDS011;46106;51.468;5.814;2023-07-16T05:33:33;9.90;;;3.38;;
60243;SDS011;46106;51.468;5.814;2023-07-16T05:36:19;16.30;;;4.47;;
60243;SDS011;46106;51.468;5.814;2023-07-16T05:39:05;12.82;;;4.40;;
60243;SDS011;46106;51.468;5.814;2023-07-16T05:41:51;8.90;;;4.22;;
60243;SDS011;46106;51.468;5.814;2023-07-16T05:44:36;14.00;;;4.53;;
60243;SDS011;46106;51.468;5.814;2023-07-16T05:47:22;13.18;;;4.28;;
60243;SDS011;46106;51.468;5.814;2023-07-16T05:50:08;10.05;;;4.22;;
60243;SDS011;46106;51.468;5.814;2023-07-16T05:52:54;13.43;;;4.20;;
60243;SDS011;46106;51.468;5.814;2023-07-16T05:55:40;11.68;;;3.97;;
60243;SDS011;46106;51.468;5.814;2023-07-16T05:58:26;11.25;;;4.05;;
60243;SDS011;46106;51.468;5.814;2023-07-16T06:01:11;14.38;;;4.30;;
60243;SDS011;46106;51.468;5.814;2023-07-16T06:03:57;15.43;;;4.53;;
60243;SDS011;46106;51.468;5.814;2023-07-16T06:06:43;21.27;;;6.20;;
60243;SDS011;46106;51.468;5.814;2023-07-16T06:09:29;12.80;;;3.67;;
60243;SDS011;46106;51.468;5.814;2023-07-16T06:12:14;15.40;;;4.03;;
60243;SDS011;46106;51.468;5.814;2023-07-16T06:15:00;9.82;;;4.05;;
60243;SDS011;46106;51.468;5.814;2023-07-16T06:17:46;13.93;;;4.22;;
60243;SDS011;46106;51.468;5.814;2023-07-16T06:20:32;14.00;;;4.43;;
60243;SDS011;46106;51.468;5.814;2023-07-16T06:23:18;9.32;;;4.30;;
60243;SDS011;46106;51.468;5.814;2023-07-16T06:26:03;15.18;;;3.65;;
60243;SDS011;46106;51.468;5.814;2023-07-16T06:28:49;16.10;;;5.10;;
60243;SDS011;46106;51.468;5.814;2023-07-16T06:31:35;15.85;;;4.65;;
60243;SDS011;46106;51.468;5.814;2023-07-16T06:34:21;8.07;;;4.30;;
60243;SDS011;46106;51.468;5.814;2023-07-16T06:37:07;11.30;;;4.65;;
60243;SDS011;46106;51.468;5.814;2023-07-16T06:39:53;15.02;;;4.72;;
60243;SDS011;46106;51.468;5.814;2023-07-16T06:42:39;13.98;;;4.32;;
60243;SDS011;46106;51.468;5.814;2023-07-16T06:45:25;16.83;;;5.88;;
60243;SDS011;46106;51.468;5.814;2023-07-16T06:48:11;19.67;;;5.68;;
60243;SDS011;46106;51.468;5.814;2023-07-16T06:50:56;20.63;;;5.47;;
60243;SDS011;46106;51.468;5.814;2023-07-16T06:53:42;16.63;;;5.28;;
60243;SDS011;46106;51.468;5.814;2023-07-16T06:56:28;16.15;;;5.13;;
60243;SDS011;46106;51.468;5.814;2023-07-16T06:59:14;22.40;;;5.97;;
60243;SDS011;46106;51.468;5.814;2023-07-16T07:01:59;14.27;;;5.13;;
60243;SDS011;46106;51.468;5.814;2023-07-16T07:04:45;18.23;;;6.25;;
60243;SDS011;46106;51.468;5.814;2023-07-16T07:07:31;18.92;;;6.03;;
60243;SDS011;46106;51.468;5.814;2023-07-16T07:10:16;17.30;;;5.30;;
60243;SDS011;46106;51.468;5.814;2023-07-16T07:13:02;15.77;;;5.85;;
60243;SDS011;46106;51.468;5.814;2023-07-16T07:15:48;20.52;;;6.10;;
60243;SDS011;46106;51.468;5.814;2023-07-16T07:18:33;22.98;;;5.78;;
60243;SDS011;46106;51.468;5.814;2023-07-16T07:21:19;11.98;;;5.22;;
60243;SDS011;46106;51.468;5.814;2023-07-16T07:24:05;19.10;;;6.30;;
60243;SDS011;46106;51.468;5.814;2023-07-16T07:26:51;17.00;;;6.07;;
60243;SDS011;46106;51.468;5.814;2023-07-16T07:29:36;17.13;;;5.80;;
60243;SDS011;46106;51.468;5.814;2023-07-16T07:32:22;14.10;;;5.30;;
60243;SDS011;46106;51.468;5.814;2023-07-16T07:35:08;19.40;;;5.53;;
60243;SDS011;46106;51.468;5.814;2023-07-16T07:37:54;14.52;;;5.68;;
60243;SDS011;46106;51.468;5.814;2023-07-16T07:40:42;14.85;;;6.10;;
60243;SDS011;46106;51.468;5.814;2023-07-16T07:43:28;14.60;;;5.78;;
60243;SDS011;46106;51.468;5.814;2023-07-16T07:46:13;15.55;;;5.03;;
60243;SDS011;46106;51.468;5.814;2023-07-16T07:48:59;19.92;;;6.15;;
60243;SDS011;46106;51.468;5.814;2023-07-16T07:51:45;12.30;;;5.18;;
60243;SDS011;46106;51.468;5.814;2023-07-16T07:54:32;12.13;;;5.15;;
60243;SDS011;46106;51.468;5.814;2023-07-16T07:57:19;16.25;;;6.30;;
60243;SDS011;46106;51.468;5.814;2023-07-16T08:00:05;15.15;;;5.60;;
60243;SDS011;46106;51.468;5.814;2023-07-16T08:02:52;12.90;;;5.05;;
60243;SDS011;46106;51.468;5.814;2023-07-16T08:05:37;15.38;;;5.43;;
60243;SDS011;46106;51.468;5.814;2023-07-16T08:08:23;22.67;;;5.72;;
60243;SDS011;46106;51.468;5.814;2023-07-16T08:11:09;19.20;;;5.68;;
60243;SDS011;46106;51.468;5.814;2023-07-16T08:13:54;14.65;;;5.03;;
60243;SDS011;46106;51.468;5.814;2023-07-16T08:16:40;15.07;;;5.68;;
60243;SDS011;46106;51.468;5.814;2023-07-16T08:19:26;12.75;;;4.55;;
60243;SDS011;46106;51.468;5.814;2023-07-16T08:22:11;16.50;;;5.63;;
60243;SDS011;46106;51.468;5.814;2023-07-16T08:24:57;18.00;;;5.22;;
60243;SDS011;46106;51.468;5.814;2023-07-16T08:27:43;19.10;;;4.97;;
60243;SDS011;46106;51.468;5.814;2023-07-16T08:30:29;16.00;;;5.35;;
60243;SDS011;46106;51.468;5.814;2023-07-16T08:33:15;13.85;;;4.53;;
60243;SDS011;46106;51.468;5.814;2023-07-16T08:36:00;16.40;;;4.70;;
60243;SDS011;46106;51.468;5.814;2023-07-16T08:38:46;12.45;;;4.72;;
60243;SDS011;46106;51.468;5.814;2023-07-16T08:41:32;23.75;;;5.07;;
60243;SDS011;46106;51.468;5.814;2023-07-16T08:44:18;11.57;;;5.18;;
60243;SDS011;46106;51.468;5.814;2023-07-16T08:47:05;9.40;;;4.53;;
60243;SDS011;46106;51.468;5.814;2023-07-16T08:49:54;11.40;;;4.53;;
60243;SDS011;46106;51.468;5.814;2023-07-16T08:52:43;10.05;;;4.18;;
60243;SDS011;46106;51.468;5.814;2023-07-16T08:55:29;13.88;;;4.75;;
60243;SDS011;46106;51.468;5.814;2023-07-16T08:58:15;20.63;;;4.97;;
60243;SDS011;46106;51.468;5.814;2023-07-16T09:01:01;11.40;;;4.60;;
60243;SDS011;46106;51.468;5.814;2023-07-16T09:03:48;12.07;;;4.75;;
60243;SDS011;46106;51.468;5.814;2023-07-16T09:06:34;16.30;;;4.70;;
60243;SDS011;46106;51.468;5.814;2023-07-16T09:09:21;12.82;;;4.72;;
60243;SDS011;46106;51.468;5.814;2023-07-16T09:12:11;10.00;;;4.95;;
60243;SDS011;46106;51.468;5.814;2023-07-16T09:14:57;13.93;;;4.70;;
60243;SDS011;46106;51.468;5.814;2023-07-16T09:17:46;15.10;;;5.00;;
60243;SDS011;46106;51.468;5.814;2023-07-16T09:20:33;14.15;;;4.53;;
60243;SDS011;46106;51.468;5.814;2023-07-16T09:23:19;8.10;;;3.90;;
60243;SDS011;46106;51.468;5.814;2023-07-16T09:26:05;9.85;;;3.78;;
60243;SDS011;46106;51.468;5.814;2023-07-16T09:28:50;10.25;;;4.53;;
60243;SDS011;46106;51.468;5.814;2023-07-16T09:31:36;11.35;;;4.07;;
60243;SDS011;46106;51.468;5.814;2023-07-16T09:34:22;13.27;;;4.18;;
60243;SDS011;46106;51.468;5.814;2023-07-16T09:37:08;14.48;;;4.00;;
60243;SDS011;46106;51.468;5.814;2023-07-16T09:39:54;8.55;;;4.15;;
60243;SDS011;46106;51.468;5.814;2023-07-16T09:42:41;13.90;;;4.40;;
60243;SDS011;46106;51.468;5.814;2023-07-16T09:45:28;11.10;;;3.95;;
60243;SDS011;46106;51.468;5.814;2023-07-16T09:48:14;9.80;;;4.15;;
60243;SDS011;46106;51.468;5.814;2023-07-16T09:51:00;15.23;;;4.47;;
60243;SDS011;46106;51.468;5.814;2023-07-16T09:53:46;25.67;;;4.13;;
60243;SDS011;46106;51.468;5.814;2023-07-16T09:56:47;10.30;;;3.90;;
60243;SDS011;46106;51.468;5.814;2023-07-16T09:59:35;7.55;;;3.67;;
60243;SDS011;46106;51.468;5.814;2023-07-16T10:02:21;7.18;;;3.05;;
60243;SDS011;46106;51.468;5.814;2023-07-16T10:07:59;15.88;;;4.32;;
60243;SDS011;46106;51.468;5.814;2023-07-16T10:10:49;15.02;;;3.58;;
60243;SDS011;46106;51.468;5.814;2023-07-16T10:13:39;9.38;;;3.17;;
60243;SDS011;46106;51.468;5.814;2023-07-16T10:16:25;6.72;;;3.03;;
60243;SDS011;46106;51.468;5.814;2023-07-16T10:19:13;10.93;;;3.45;;
60243;SDS011;46106;51.468;5.814;2023-07-16T10:21:58;8.40;;;3.30;;
60243;SDS011;46106;51.468;5.814;2023-07-16T10:24:44;6.55;;;2.85;;
60243;SDS011;46106;51.468;5.814;2023-07-16T10:27:36;8.60;;;3.17;;
60243;SDS011;46106;51.468;5.814;2023-07-16T10:30:22;9.13;;;3.08;;
60243;SDS011;46106;51.468;5.814;2023-07-16T10:33:11;6.40;;;3.22;;
60243;SDS011;46106;51.468;5.814;2023-07-16T10:35:58;10.90;;;3.47;;
60243;SDS011;46106;51.468;5.814;2023-07-16T10:38:45;6.70;;;3.00;;
60243;SDS011;46106;51.468;5.814;2023-07-16T10:41:31;12.77;;;3.08;;
60243;SDS011;46106;51.468;5.814;2023-07-16T10:44:20;8.20;;;3.10;;
60243;SDS011;46106;51.468;5.814;2023-07-16T10:47:06;9.63;;;3.22;;
60243;SDS011;46106;51.468;5.814;2023-07-16T10:49:52;8.73;;;3.30;;
60243;SDS011;46106;51.468;5.814;2023-07-16T10:52:39;7.40;;;2.92;;
60243;SDS011;46106;51.468;5.814;2023-07-16T10:55:26;7.60;;;3.30;;
60243;SDS011;46106;51.468;5.814;2023-07-16T10:58:13;6.88;;;3.10;;
60243;SDS011;46106;51.468;5.814;2023-07-16T11:00:59;7.40;;;2.50;;
60243;SDS011;46106;51.468;5.814;2023-07-16T11:03:45;6.32;;;3.10;;
60243;SDS011;46106;51.468;5.814;2023-07-16T11:06:31;9.77;;;2.75;;
60243;SDS011;46106;51.468;5.814;2023-07-16T11:09:17;8.57;;;3.03;;
60243;SDS011;46106;51.468;5.814;2023-07-16T11:12:09;12.68;;;3.20;;
60243;SDS011;46106;51.468;5.814;2023-07-16T11:14:56;5.55;;;2.90;;
60243;SDS011;46106;51.468;5.814;2023-07-16T11:17:42;7.18;;;3.17;;
60243;SDS011;46106;51.468;5.814;2023-07-16T11:20:33;5.88;;;2.92;;
60243;SDS011;46106;51.468;5.814;2023-07-16T11:23:19;11.38;;;3.13;;
60243;SDS011;46106;51.468;5.814;2023-07-16T11:26:05;7.38;;;3.10;;
60243;SDS011;46106;51.468;5.814;2023-07-16T11:28:51;5.80;;;2.90;;
60243;SDS011;46106;51.468;5.814;2023-07-16T11:31:38;7.45;;;2.58;;
60243;SDS011;46106;51.468;5.814;2023-07-16T11:34:25;5.82;;;2.90;;
60243;SDS011;46106;51.468;5.814;2023-07-16T11:37:11;8.18;;;3.05;;
60243;SDS011;46106;51.468;5.814;2023-07-16T11:39:57;9.23;;;3.35;;
60243;SDS011;46106;51.468;5.814;2023-07-16T11:42:43;12.27;;;3.30;;
60243;SDS011;46106;51.468;5.814;2023-07-16T11:45:29;9.40;;;3.13;;
60243;SDS011;46106;51.468;5.814;2023-07-16T11:48:15;8.68;;;3.30;;
60243;SDS011;46106;51.468;5.814;2023-07-16T11:51:01;9.68;;;2.97;;
60243;SDS011;46106;51.468;5.814;2023-07-16T11:53:46;7.85;;;3.15;;
60243;SDS011;46106;51.468;5.814;2023-07-16T11:56:32;5.55;;;3.45;;
60243;SDS011;46106;51.468;5.814;2023-07-16T11:59:18;11.38;;;3.40;;
60243;SDS011;46106;51.468;5.814;2023-07-16T12:02:05;5.60;;;3.20;;
60243;SDS011;46106;51.468;5.814;2023-07-16T12:04:52;8.45;;;3.78;;
60243;SDS011;46106;51.468;5.814;2023-07-16T12:07:38;8.65;;;3.53;;
60243;SDS011;46106;51.468;5.814;2023-07-16T12:10:23;9.63;;;3.00;;
60243;SDS011;46106;51.468;5.814;2023-07-16T12:13:09;8.60;;;3.70;;
60243;SDS011;46106;51.468;5.814;2023-07-16T12:15:55;7.38;;;3.38;;
60243;SDS011;46106;51.468;5.814;2023-07-16T12:18:40;8.27;;;3.03;;
60243;SDS011;46106;51.468;5.814;2023-07-16T12:21:26;10.32;;;4.13;;
60243;SDS011;46106;51.468;5.814;2023-07-16T12:24:12;8.85;;;3.13;;
60243;SDS011;46106;51.468;5.814;2023-07-16T12:26:58;7.63;;;3.35;;
60243;SDS011;46106;51.468;5.814;2023-07-16T12:29:43;10.48;;;3.17;;
60243;SDS011;46106;51.468;5.814;2023-07-16T12:32:29;6.80;;;2.63;;
60243;SDS011;46106;51.468;5.814;2023-07-16T12:35:15;9.38;;;3.65;;
60243;SDS011;46106;51.468;5.814;2023-07-16T12:38:01;6.28;;;3.30;;
60243;SDS011;46106;51.468;5.814;2023-07-16T12:40:46;10.18;;;3.22;;
60243;SDS011;46106;51.468;5.814;2023-07-16T12:43:32;8.63;;;3.33;;
60243;SDS011;46106;51.468;5.814;2023-07-16T12:46:19;10.70;;;3.10;;
60243;SDS011;46106;51.468;5.814;2023-07-16T12:49:05;8.55;;;3.35;;
60243;SDS011;46106;51.468;5.814;2023-07-16T12:51:51;12.32;;;3.30;;
60243;SDS011;46106;51.468;5.814;2023-07-16T12:54:36;10.23;;;3.63;;
60243;SDS011;46106;51.468;5.814;2023-07-16T12:57:22;12.65;;;3.58;;
60243;SDS011;46106;51.468;5.814;2023-07-16T13:00:08;8.48;;;3.30;;
60243;SDS011;46106;51.468;5.814;2023-07-16T13:02:55;9.60;;;3.38;;
60243;SDS011;46106;51.468;5.814;2023-07-16T13:05:40;8.90;;;3.50;;
60243;SDS011;46106;51.468;5.814;2023-07-16T13:08:26;7.13;;;3.35;;
60243;SDS011;46106;51.468;5.814;2023-07-16T13:11:12;8.32;;;3.10;;
60243;SDS011;46106;51.468;5.814;2023-07-16T13:13:58;10.82;;;3.40;;
60243;SDS011;46106;51.468;5.814;2023-07-16T13:16:43;10.55;;;3.25;;
60243;SDS011;46106;51.468;5.814;2023-07-16T13:19:29;6.50;;;3.30;;
60243;SDS011;46106;51.468;5.814;2023-07-16T13:22:15;9.25;;;3.65;;
60243;SDS011;46106;51.468;5.814;2023-07-16T13:25:01;9.07;;;3.60;;
60243;SDS011;46106;51.468;5.814;2023-07-16T13:27:46;8.60;;;3.53;;
60243;SDS011;46106;51.468;5.814;2023-07-16T13:30:34;10.20;;;3.65;;
60243;SDS011;46106;51.468;5.814;2023-07-16T13:33:19;8.25;;;3.75;;
60243;SDS011;46106;51.468;5.814;2023-07-16T13:36:05;16.75;;;3.70;;
60243;SDS011;46106;51.468;5.814;2023-07-16T13:38:51;6.20;;;3.20;;
60243;SDS011;46106;51.468;5.814;2023-07-16T13:41:37;6.72;;;2.80;;
60243;SDS011;46106;51.468;5.814;2023-07-16T13:44:22;7.63;;;3.00;;
60243;SDS011;46106;51.468;5.814;2023-07-16T13:47:08;7.63;;;3.20;;
60243;SDS011;46106;51.468;5.814;2023-07-16T13:49:54;10.40;;;3.58;;
60243;SDS011;46106;51.468;5.814;2023-07-16T13:52:40;7.05;;;3.25;;
60243;SDS011;46106;51.468;5.814;2023-07-16T13:55:25;11.73;;;3.47;;
60243;SDS011;46106;51.468;5.814;2023-07-16T13:58:11;8.50;;;3.08;;
60243;SDS011;46106;51.468;5.814;2023-07-16T14:00:57;8.05;;;3.30;;
60243;SDS011;46106;51.468;5.814;2023-07-16T14:03:43;6.10;;;3.25;;
60243;SDS011;46106;51.468;5.814;2023-07-16T14:06:28;10.90;;;2.92;;
60243;SDS011;46106;51.468;5.814;2023-07-16T14:09:14;10.68;;;3.63;;
60243;SDS011;46106;51.468;5.814;2023-07-16T14:12:00;7.10;;;3.40;;
60243;SDS011;46106;51.468;5.814;2023-07-16T14:14:45;9.93;;;4.15;;
60243;SDS011;46106;51.468;5.814;2023-07-16T14:17:31;8.57;;;3.05;;
60243;SDS011;46106;51.468;5.814;2023-07-16T14:20:17;8.68;;;3.33;;
60243;SDS011;46106;51.468;5.814;2023-07-16T14:23:03;8.88;;;3.45;;
60243;SDS011;46106;51.468;5.814;2023-07-16T14:25:49;8.40;;;3.10;;
60243;SDS011;46106;51.468;5.814;2023-07-16T14:28:34;9.13;;;3.67;;
60243;SDS011;46106;51.468;5.814;2023-07-16T14:31:20;9.85;;;3.75;;
60243;SDS011;46106;51.468;5.814;2023-07-16T14:34:06;8.98;;;3.15;;
60243;SDS011;46106;51.468;5.814;2023-07-16T14:36:52;7.93;;;2.95;;
60243;SDS011;46106;51.468;5.814;2023-07-16T14:39:38;7.05;;;2.95;;
60243;SDS011;46106;51.468;5.814;2023-07-16T14:42:24;7.40;;;2.95;;
60243;SDS011;46106;51.468;5.814;2023-07-16T14:45:10;7.28;;;3.10;;
60243;SDS011;46106;51.468;5.814;2023-07-16T14:47:56;6.25;;;3.00;;
60243;SDS011;46106;51.468;5.814;2023-07-16T14:50:41;8.60;;;3.33;;
60243;SDS011;46106;51.468;5.814;2023-07-16T14:53:27;15.05;;;3.33;;
60243;SDS011;46106;51.468;5.814;2023-07-16T14:56:14;12.20;;;3.53;;
60243;SDS011;46106;51.468;5.814;2023-07-16T14:59:00;8.52;;;3.17;;
60243;SDS011;46106;51.468;5.814;2023-07-16T15:01:45;9.82;;;3.70;;
60243;SDS011;46106;51.468;5.814;2023-07-16T15:04:31;6.72;;;3.05;;
60243;SDS011;46106;51.468;5.814;2023-07-16T15:07:17;6.70;;;3.20;;
60243;SDS011;46106;51.468;5.814;2023-07-16T15:10:03;6.93;;;3.05;;
60243;SDS011;46106;51.468;5.814;2023-07-16T15:12:49;9.88;;;3.17;;
60243;SDS011;46106;51.468;5.814;2023-07-16T15:15:35;12.85;;;3.40;;
60243;SDS011;46106;51.468;5.814;2023-07-16T15:18:20;14.13;;;3.75;;
60243;SDS011;46106;51.468;5.814;2023-07-16T15:21:06;7.53;;;2.72;;
60243;SDS011;46106;51.468;5.814;2023-07-16T15:23:52;10.00;;;3.38;;
60243;SDS011;46106;51.468;5.814;2023-07-16T15:26:38;11.32;;;3.70;;
60243;SDS011;46106;51.468;5.814;2023-07-16T15:29:24;8.45;;;3.15;;
60243;SDS011;46106;51.468;5.814;2023-07-16T15:32:10;9.20;;;3.38;;
60243;SDS011;46106;51.468;5.814;2023-07-16T15:34:55;7.30;;;3.38;;
60243;SDS011;46106;51.468;5.814;2023-07-16T15:37:41;12.30;;;3.75;;
60243;SDS011;46106;51.468;5.814;2023-07-16T15:40:27;10.82;;;3.78;;
60243;SDS011;46106;51.468;5.814;2023-07-16T15:43:13;8.13;;;3.10;;
60243;SDS011;46106;51.468;5.814;2023-07-16T15:45:58;11.10;;;3.15;;
60243;SDS011;46106;51.468;5.814;2023-07-16T15:48:44;11.25;;;3.13;;
60243;SDS011;46106;51.468;5.814;2023-07-16T15:51:30;9.55;;;3.80;;
60243;SDS011;46106;51.468;5.814;2023-07-16T15:54:16;8.93;;;3.80;;
60243;SDS011;46106;51.468;5.814;2023-07-16T15:57:02;8.75;;;3.65;;
60243;SDS011;46106;51.468;5.814;2023-07-16T15:59:48;8.75;;;3.50;;
60243;SDS011;46106;51.468;5.814;2023-07-16T16:02:34;14.80;;;3.53;;
60243;SDS011;46106;51.468;5.814;2023-07-16T16:05:19;10.15;;;3.58;;
60243;SDS011;46106;51.468;5.814;2023-07-16T16:08:12;12.25;;;3.47;;
60243;SDS011;46106;51.468;5.814;2023-07-16T16:10:59;10.00;;;3.42;;
60243;SDS011;46106;51.468;5.814;2023-07-16T16:13:45;9.40;;;3.60;;
60243;SDS011;46106;51.468;5.814;2023-07-16T16:16:31;9.18;;;3.47;;
60243;SDS011;46106;51.468;5.814;2023-07-16T16:19:21;6.35;;;3.40;;
60243;SDS011;46106;51.468;5.814;2023-07-16T16:22:08;8.00;;;3.92;;
60243;SDS011;46106;51.468;5.814;2023-07-16T16:24:53;6.75;;;3.13;;
60243;SDS011;46106;51.468;5.814;2023-07-16T16:27:41;11.05;;;3.47;;
60243;SDS011;46106;51.468;5.814;2023-07-16T16:30:30;6.35;;;3.13;;
60243;SDS011;46106;51.468;5.814;2023-07-16T16:33:16;12.27;;;3.28;;
60243;SDS011;46106;51.468;5.814;2023-07-16T16:36:08;11.15;;;3.33;;
60243;SDS011;46106;51.468;5.814;2023-07-16T16:38:55;9.70;;;3.55;;
60243;SDS011;46106;51.468;5.814;2023-07-16T16:41:40;9.45;;;2.70;;